Time;durP1;ratioP1;P1;durP2;ratioP2;P2;SDS_P1;SDS_P2;PMS_P1;PMS_P2;Temp;Humidity;BMP_temperature;BMP_pressure;BME280_temperature;BME280_humidity;BME280_pressure;Samples;Min_cycle;Max_cycle;Signal;HPM_P1;HPM_P2
2022/08/18 00:02:03;;;;;;;14.98;12.38;;;;;;;;;;5054184;28;20025;-61
2022/08/18 00:04:28;;;;;;;12.90;11.63;;;;;;;;;;5055646;28;20063;-61
2022/08/18 00:06:54;;;;;;;17.70;12.18;;;;;;;;;;5056095;28;20029;-61
2022/08/18 00:09:20;;;;;;;12.93;11.25;;;;;;;;;;5055551;28;20163;-61
2022/08/18 00:11:45;;;;;;;12.50;11.27;;;;;;;;;;5055316;28;20028;-61
2022/08/18 00:14:13;;;;;;;13.43;12.02;;;;;;;;;;5055156;28;20033;-61
2022/08/18 00:16:38;;;;;;;17.00;13.40;;;;;;;;;;5055113;28;20020;-61
2022/08/18 00:19:03;;;;;;;16.35;12.43;;;;;;;;;;5055341;28;20044;-61
2022/08/18 00:21:29;;;;;;;13.38;11.98;;;;;;;;;;5055033;28;20028;-61
2022/08/18 00:23:54;;;;;;;15.55;12.75;;;;;;;;;;5053793;28;20067;-61
2022/08/18 00:26:20;;;;;;;15.68;13.25;;;;;;;;;;5037090;28;20024;-61
2022/08/18 00:28:45;;;;;;;14.02;12.55;;;;;;;;;;5055164;28;20086;-61
2022/08/18 00:31:11;;;;;;;12.88;10.43;;;;;;;;;;5055045;28;20017;-61
2022/08/18 00:33:36;;;;;;;11.85;10.60;;;;;;;;;;5055300;28;20029;-61
2022/08/18 00:36:03;;;;;;;11.10;10.00;;;;;;;;;;5054716;28;20021;-61
2022/08/18 00:38:28;;;;;;;12.48;10.68;;;;;;;;;;5054946;28;20044;-60
2022/08/18 00:40:54;;;;;;;13.23;10.30;;;;;;;;;;5053377;28;20017;-61
2022/08/18 00:43:22;;;;;;;10.40;9.35;;;;;;;;;;5054552;28;20471;-61
2022/08/18 00:45:48;;;;;;;11.10;10.02;;;;;;;;;;5055080;28;20442;-61
2022/08/18 00:48:14;;;;;;;11.35;9.45;;;;;;;;;;5054775;28;20068;-61
2022/08/18 00:50:54;;;;;;;10.82;9.82;;;;;;;;;;5054448;28;20056;-61
2022/08/18 00:53:19;;;;;;;;;;;;;;;;;;5054577;28;20472;-61
2022/08/18 00:55:47;;;;;;;9.57;8.68;;;;;;;;;;5053203;28;19957;-61
2022/08/18 00:58:17;;;;;;;10.27;9.38;;;;;;;;;;5054328;28;20032;-61
2022/08/18 01:00:43;;;;;;;;;;;;;;;;;;5054362;28;20025;-61
2022/08/18 01:03:11;;;;;;;11.07;8.25;;;;;;;;;;5054632;28;19908;-61
2022/08/18 01:05:41;;;;;;;9.73;8.73;;;;;;;;;;5054460;28;20020;-61
2022/08/18 01:08:10;;;;;;;10.55;9.65;;;;;;;;;;5054427;28;20039;-61
2022/08/18 01:10:36;;;;;;;10.82;9.52;;;;;;;;;;5054118;28;20021;-61
2022/08/18 01:13:02;;;;;;;10.45;9.35;;;;;;;;;;5054018;28;20047;-61
2022/08/18 01:15:27;;;;;;;10.68;9.68;;;;;;;;;;5052753;28;20025;-61
2022/08/18 01:23:21;;;;;;;11.30;10.30;;;;;;;;;;5054225;28;20057;-61
2022/08/18 01:25:59;;;;;;;10.63;9.57;;;;;;;;;;5053877;28;20394;-61
2022/08/18 01:28:28;;;;;;;23.83;13.48;;;;;;;;;;5053850;28;20475;-61
2022/08/18 01:30:57;;;;;;;16.83;11.00;;;;;;;;;;5054123;28;20029;-61
2022/08/18 01:33:26;;;;;;;12.65;11.23;;;;;;;;;;5053712;28;20040;-61
2022/08/18 01:35:52;;;;;;;12.20;10.50;;;;;;;;;;5054027;28;20059;-61
2022/08/18 01:38:18;;;;;;;11.00;9.98;;;;;;;;;;5053716;28;20021;-61
2022/08/18 01:40:45;;;;;;;10.88;9.82;;;;;;;;;;5053724;28;20074;-61
2022/08/18 01:43:11;;;;;;;12.45;11.15;;;;;;;;;;5053638;28;20490;-61
2022/08/18 01:45:36;;;;;;;23.50;14.68;;;;;;;;;;5052364;28;20067;-61
2022/08/18 01:48:03;;;;;;;20.42;13.57;;;;;;;;;;5053909;28;20029;-61
2022/08/18 01:50:29;;;;;;;11.88;10.68;;;;;;;;;;5053868;28;20368;-61
2022/08/18 01:52:54;;;;;;;12.40;11.02;;;;;;;;;;5053273;28;20045;-61
2022/08/18 01:55:21;;;;;;;11.38;10.25;;;;;;;;;;5053824;28;20486;-61
2022/08/18 01:57:46;;;;;;;10.38;9.40;;;;;;;;;;5053745;28;20474;-61
2022/08/18 02:00:13;;;;;;;10.63;9.20;;;;;;;;;;5053738;28;20021;-61
2022/08/18 02:02:40;;;;;;;10.30;9.40;;;;;;;;;;5053443;28;20029;-62
2022/08/18 02:05:08;;;;;;;10.65;9.52;;;;;;;;;;5053717;28;20029;-61
2022/08/18 02:07:34;;;;;;;12.98;10.55;;;;;;;;;;5053692;28;20104;-61
2022/08/18 02:10:00;;;;;;;12.13;10.80;;;;;;;;;;5053423;28;20498;-61
2022/08/18 02:12:26;;;;;;;11.73;10.63;;;;;;;;;;5053559;28;20025;-61
2022/08/18 02:14:52;;;;;;;11.23;10.23;;;;;;;;;;5056701;28;20024;-61
2022/08/18 02:17:18;;;;;;;10.52;9.43;;;;;;;;;;5057624;28;20029;-61
2022/08/18 02:19:44;;;;;;;12.85;9.02;;;;;;;;;;5057612;28;20040;-61
2022/08/18 02:22:15;;;;;;;9.82;8.85;;;;;;;;;;5057562;28;20032;-61
2022/08/18 02:24:40;;;;;;;9.65;8.55;;;;;;;;;;5057537;28;20037;-61
2022/08/18 02:27:06;;;;;;;9.35;8.43;;;;;;;;;;5057464;28;20017;-61
2022/08/18 02:29:31;;;;;;;12.80;9.07;;;;;;;;;;5057684;28;20040;-61
2022/08/18 02:31:57;;;;;;;10.40;9.10;;;;;;;;;;5057308;28;20025;-61
2022/08/18 02:34:22;;;;;;;9.95;9.07;;;;;;;;;;5057067;28;20063;-61
2022/08/18 02:36:48;;;;;;;10.82;9.60;;;;;;;;;;5057285;28;20021;-61
2022/08/18 02:39:13;;;;;;;12.15;10.95;;;;;;;;;;5057261;28;20078;-61
2022/08/18 02:41:39;;;;;;;11.00;9.85;;;;;;;;;;5056929;28;20029;-61
2022/08/18 02:44:05;;;;;;;10.13;9.13;;;;;;;;;;5056892;28;20032;-61
2022/08/18 02:46:30;;;;;;;10.13;8.77;;;;;;;;;;5057088;28;20091;-61
2022/08/18 02:48:56;;;;;;;9.90;9.00;;;;;;;;;;5057054;28;20455;-61
2022/08/18 02:51:21;;;;;;;10.40;9.40;;;;;;;;;;5055944;28;20041;-61
2022/08/18 02:53:47;;;;;;;10.75;9.38;;;;;;;;;;5057257;28;20021;-61
2022/08/18 02:58:45;;;;;;;12.95;9.88;;;;;;;;;;5057182;28;20029;-61
2022/08/18 03:01:10;;;;;;;13.90;10.90;;;;;;;;;;5056873;28;20360;-61
2022/08/18 03:03:36;;;;;;;14.70;10.93;;;;;;;;;;5056803;28;20033;-61
2022/08/18 03:06:02;;;;;;;13.38;10.35;;;;;;;;;;5056496;28;20024;-61
2022/08/18 03:08:27;;;;;;;13.15;10.38;;;;;;;;;;5056396;28;20033;-61
2022/08/18 03:10:53;;;;;;;14.70;10.52;;;;;;;;;;5056691;28;20016;-61
2022/08/18 03:13:19;;;;;;;13.20;9.60;;;;;;;;;;5056261;28;20032;-61
2022/08/18 03:15:45;;;;;;;12.43;11.13;;;;;;;;;;5056593;28;20040;-61
2022/08/18 03:18:12;;;;;;;15.20;12.05;;;;;;;;;;5056519;28;20363;-61
2022/08/18 03:20:37;;;;;;;25.77;13.82;;;;;;;;;;5056256;28;20009;-61
2022/08/18 03:23:03;;;;;;;24.73;12.98;;;;;;;;;;5056202;28;20037;-61
2022/08/18 03:25:28;;;;;;;21.48;12.32;;;;;;;;;;5055934;28;20021;-61
2022/08/18 03:27:53;;;;;;;20.15;10.88;;;;;;;;;;5056071;28;20053;-61
2022/08/18 03:30:19;;;;;;;22.63;11.95;;;;;;;;;;5056048;28;20044;-61
2022/08/18 03:32:46;;;;;;;24.88;12.38;;;;;;;;;;5056221;28;20406;-61
2022/08/18 03:35:13;;;;;;;21.85;11.30;;;;;;;;;;5056182;28;20025;-61
2022/08/18 03:37:39;;;;;;;19.83;11.60;;;;;;;;;;5056186;28;20021;-60
2022/08/18 03:40:05;;;;;;;16.30;10.95;;;;;;;;;;5056164;28;20013;-61
2022/08/18 03:42:30;;;;;;;18.55;10.23;;;;;;;;;;5056078;28;20040;-61
2022/08/18 03:44:56;;;;;;;12.05;9.48;;;;;;;;;;5056028;28;20017;-60
2022/08/18 03:47:21;;;;;;;9.95;8.93;;;;;;;;;;5055539;28;20107;-61
2022/08/18 03:49:48;;;;;;;11.35;9.45;;;;;;;;;;5071491;28;20025;-61
2022/08/18 03:52:13;;;;;;;10.80;9.43;;;;;;;;;;5055751;28;20051;-61
2022/08/18 03:54:40;;;;;;;13.90;9.88;;;;;;;;;;5055562;28;20475;-61
2022/08/18 03:57:11;;;;;;;11.73;9.18;;;;;;;;;;5055344;28;20029;-61
2022/08/18 03:59:40;;;;;;;10.68;9.40;;;;;;;;;;5055230;28;20033;-61
2022/08/18 04:02:05;;;;;;;15.55;10.93;;;;;;;;;;5055164;28;20033;-61
2022/08/18 04:04:31;;;;;;;27.55;16.13;;;;;;;;;;5055266;28;20036;-60
2022/08/18 04:06:58;;;;;;;31.98;19.90;;;;;;;;;;5055411;28;20028;-60
2022/08/18 04:09:24;;;;;;;27.85;17.23;;;;;;;;;;5055836;28;20025;-60
2022/08/18 04:11:50;;;;;;;12.98;11.68;;;;;;;;;;5055230;28;20028;-60
2022/08/18 04:14:18;;;;;;;12.73;9.82;;;;;;;;;;5055499;28;20029;-60
2022/08/18 04:16:43;;;;;;;18.50;11.60;;;;;;;;;;5055755;28;20409;-60
2022/08/18 04:19:12;;;;;;;12.20;10.50;;;;;;;;;;5054970;28;20021;-60
2022/08/18 04:21:38;;;;;;;11.00;9.90;;;;;;;;;;5055537;28;20017;-60
2022/08/18 04:24:05;;;;;;;12.80;11.13;;;;;;;;;;5054966;28;20036;-60
2022/08/18 04:26:31;;;;;;;12.38;11.18;;;;;;;;;;5054920;28;20101;-60
2022/08/18 04:28:59;;;;;;;14.73;11.60;;;;;;;;;;5053230;28;20029;-60
2022/08/18 04:31:25;;;;;;;12.27;10.93;;;;;;;;;;5054826;28;20055;-60
2022/08/18 04:33:51;;;;;;;13.15;10.73;;;;;;;;;;5053493;28;20056;-60
2022/08/18 04:36:16;;;;;;;12.52;10.93;;;;;;;;;;5051898;28;20021;-60
2022/08/18 04:38:41;;;;;;;13.10;11.15;;;;;;;;;;5052748;28;20040;-60
2022/08/18 04:41:07;;;;;;;12.10;10.95;;;;;;;;;;5051540;28;20017;-60
2022/08/18 04:43:33;;;;;;;12.80;11.45;;;;;;;;;;5052873;28;20068;-60
2022/08/18 04:46:00;;;;;;;13.30;11.85;;;;;;;;;;5052609;28;20111;-60
2022/08/18 04:48:33;;;;;;;12.82;11.48;;;;;;;;;;5052542;28;20111;-61
2022/08/18 04:51:08;;;;;;;12.63;11.45;;;;;;;;;;5052299;28;20436;-61
2022/08/18 04:53:46;;;;;;;13.52;12.23;;;;;;;;;;5052322;28;20036;-60
2022/08/18 04:56:28;;;;;;;13.57;11.40;;;;;;;;;;5052820;28;20581;-60
2022/08/18 04:58:56;;;;;;;12.90;11.70;;;;;;;;;;5054637;28;20029;-60
2022/08/18 05:01:23;;;;;;;13.52;12.15;;;;;;;;;;5054879;28;20040;-60
2022/08/18 05:03:49;;;;;;;13.43;11.98;;;;;;;;;;5054514;28;20037;-60
2022/08/18 05:06:15;;;;;;;14.18;11.82;;;;;;;;;;5054506;28;20017;-60
2022/08/18 05:08:40;;;;;;;13.52;11.68;;;;;;;;;;5054474;28;20071;-61
2022/08/18 05:11:06;;;;;;;15.07;12.02;;;;;;;;;;5054134;28;20462;-60
2022/08/18 05:13:31;;;;;;;15.50;13.00;;;;;;;;;;5054315;28;20037;-60
2022/08/18 05:16:02;;;;;;;14.07;12.65;;;;;;;;;;5054344;28;20051;-60
2022/08/18 05:18:28;;;;;;;13.38;12.02;;;;;;;;;;5053994;28;20039;-60
2022/08/18 05:20:54;;;;;;;14.10;12.52;;;;;;;;;;5054552;28;20017;-60
2022/08/18 05:23:20;;;;;;;14.02;12.60;;;;;;;;;;5053907;28;20078;-60
2022/08/18 05:25:45;;;;;;;16.35;13.23;;;;;;;;;;5053898;28;20386;-60
2022/08/18 05:28:12;;;;;;;14.10;12.80;;;;;;;;;;5053906;28;20513;-60
2022/08/18 05:30:37;;;;;;;14.52;12.63;;;;;;;;;;5052582;28;20368;-60
2022/08/18 05:33:03;;;;;;;18.15;13.75;;;;;;;;;;5053733;28;20116;-60
2022/08/18 05:35:31;;;;;;;13.93;12.45;;;;;;;;;;5052899;28;20017;-60
2022/08/18 05:38:15;;;;;;;18.65;14.00;;;;;;;;;;5054279;28;20065;-60
2022/08/18 05:40:40;;;;;;;17.83;14.23;;;;;;;;;;5053920;28;20041;-60
2022/08/18 05:43:07;;;;;;;15.63;14.02;;;;;;;;;;5054208;28;20078;-61
2022/08/18 05:45:33;;;;;;;14.18;12.77;;;;;;;;;;5053651;28;20541;-60
2022/08/18 05:47:59;;;;;;;16.70;13.95;;;;;;;;;;5053450;28;20021;-60
2022/08/18 05:50:25;;;;;;;17.58;15.13;;;;;;;;;;5053854;28;20083;-60
2022/08/18 05:53:12;;;;;;;15.88;14.10;;;;;;;;;;5053285;28;20116;-60
2022/08/18 05:58:30;;;;;;;16.45;14.63;;;;;;;;;;5054004;28;20025;-60
2022/08/18 06:00:59;;;;;;;16.67;13.88;;;;;;;;;;5053468;28;20049;-60
2022/08/18 06:03:33;;;;;;;14.63;12.95;;;;;;;;;;5053731;28;20021;-60
2022/08/18 06:06:00;;;;;;;22.17;17.13;;;;;;;;;;5053719;28;20382;-60
2022/08/18 06:08:42;;;;;;;16.80;15.00;;;;;;;;;;5053428;28;20441;-60
2022/08/18 06:11:08;;;;;;;17.67;15.23;;;;;;;;;;5053681;28;20387;-60
2022/08/18 06:13:39;;;;;;;15.85;14.23;;;;;;;;;;5053359;28;20021;-60
2022/08/18 06:16:05;;;;;;;15.55;13.95;;;;;;;;;;5053367;28;20021;-60
2022/08/18 06:18:45;;;;;;;15.90;12.65;;;;;;;;;;5053887;28;20363;-60
2022/08/18 06:21:32;;;;;;;16.08;13.82;;;;;;;;;;5053591;28;20037;-60
2022/08/18 06:24:09;;;;;;;17.13;12.07;;;;;;;;;;5053268;28;20104;-60
2022/08/18 06:26:38;;;;;;;14.70;12.05;;;;;;;;;;5053813;28;20087;-60
2022/08/18 06:29:06;;;;;;;16.27;13.02;;;;;;;;;;5053818;28;20032;-60
2022/08/18 06:31:39;;;;;;;13.73;12.27;;;;;;;;;;5053125;28;20025;-60
2022/08/18 06:34:16;;;;;;;14.77;11.15;;;;;;;;;;5053194;28;20033;-60
2022/08/18 06:36:41;;;;;;;13.35;11.50;;;;;;;;;;5053433;28;20428;-60
2022/08/18 06:39:22;;;;;;;11.85;10.65;;;;;;;;;;5053078;28;20032;-60
2022/08/18 06:41:49;;;;;;;14.32;10.60;;;;;;;;;;5053607;28;20048;-60
2022/08/18 06:44:17;;;;;;;11.13;10.13;;;;;;;;;;5051848;28;20074;-60
2022/08/18 06:46:49;;;;;;;13.88;10.68;;;;;;;;;;5053047;28;20029;-60
2022/08/18 06:49:36;;;;;;;12.35;11.05;;;;;;;;;;5053245;28;20033;-60
2022/08/18 06:52:18;;;;;;;12.77;9.60;;;;;;;;;;5052822;28;20056;-60
2022/08/18 06:54:43;;;;;;;12.65;10.40;;;;;;;;;;5053262;28;20484;-60
2022/08/18 06:57:20;;;;;;;13.73;10.30;;;;;;;;;;5052979;28;20047;-60
2022/08/18 06:59:53;;;;;;;11.50;10.38;;;;;;;;;;5054318;28;20040;-60
2022/08/18 07:02:37;;;;;;;16.38;11.30;;;;;;;;;;5056586;28;20076;-60
2022/08/18 07:05:14;;;;;;;13.48;10.77;;;;;;;;;;5055240;28;20037;-60
2022/08/18 07:07:40;;;;;;;12.68;10.30;;;;;;;;;;5056795;28;20055;-60
2022/08/18 07:10:14;;;;;;;12.20;10.07;;;;;;;;;;5056433;28;20028;-60
2022/08/18 07:12:40;;;;;;;11.85;10.23;;;;;;;;;;5056331;28;20123;-60
2022/08/18 07:15:06;;;;;;;11.38;9.93;;;;;;;;;;5056912;28;20045;-60
2022/08/18 07:17:34;;;;;;;11.50;10.00;;;;;;;;;;5056583;28;20471;-60
2022/08/18 07:20:03;;;;;;;11.15;9.65;;;;;;;;;;5056262;28;20024;-60
2022/08/18 07:22:29;;;;;;;12.80;9.57;;;;;;;;;;5056733;28;20029;-60
2022/08/18 07:24:57;;;;;;;10.32;8.70;;;;;;;;;;5056176;28;20382;-60
2022/08/18 07:27:40;;;;;;;9.50;8.57;;;;;;;;;;5056146;28;20040;-61
2022/08/18 07:30:08;;;;;;;13.02;9.48;;;;;;;;;;5056323;28;20490;-60
2022/08/18 07:32:44;;;;;;;17.23;9.50;;;;;;;;;;5056188;28;20055;-60
2022/08/18 07:35:11;;;;;;;10.18;8.60;;;;;;;;;;5054668;28;20044;-60
2022/08/18 07:37:45;;;;;;;9.82;8.73;;;;;;;;;;5056165;28;20104;-60
2022/08/18 07:40:19;;;;;;;12.00;8.68;;;;;;;;;;5055869;28;20033;-60
2022/08/18 07:43:11;;;;;;;11.82;9.75;;;;;;;;;;5055913;28;20390;-60
2022/08/18 07:45:36;;;;;;;10.65;9.02;;;;;;;;;;5054802;28;20045;-60
2022/08/18 07:48:16;;;;;;;11.10;9.80;;;;;;;;;;5055747;28;20352;-60
2022/08/18 07:50:47;;;;;;;11.32;9.00;;;;;;;;;;5055707;28;20387;-60
2022/08/18 07:53:34;;;;;;;10.48;9.32;;;;;;;;;;5055459;28;20041;-60
2022/08/18 07:56:29;;;;;;;10.50;8.80;;;;;;;;;;5055696;28;20493;-60
2022/08/18 07:59:02;;;;;;;10.30;9.38;;;;;;;;;;5050568;28;20029;-60
2022/08/18 08:01:30;;;;;;;11.57;9.85;;;;;;;;;;5055731;28;20075;-60
2022/08/18 08:04:02;;;;;;;8.43;7.60;;;;;;;;;;5055696;28;20021;-60
2022/08/18 08:06:40;;;;;;;10.75;8.85;;;;;;;;;;5055606;28;20021;-60
2022/08/18 08:09:18;;;;;;;10.35;9.23;;;;;;;;;;5055316;28;20040;-60
2022/08/18 08:11:59;;;;;;;10.70;9.05;;;;;;;;;;5055466;28;20029;-60
2022/08/18 08:14:34;;;;;;;10.68;9.63;;;;;;;;;;5055212;28;20029;-60
2022/08/18 08:16:59;;;;;;;11.23;8.90;;;;;;;;;;5055440;28;20032;-60
2022/08/18 08:19:25;;;;;;;9.27;8.37;;;;;;;;;;5055132;28;20375;-60
2022/08/18 08:21:56;;;;;;;10.52;9.10;;;;;;;;;;5055025;28;20317;-60
2022/08/18 08:24:31;;;;;;;11.68;9.27;;;;;;;;;;5055053;28;20120;-60
2022/08/18 08:26:57;;;;;;;12.07;9.75;;;;;;;;;;5054938;28;20032;-60
2022/08/18 08:29:30;;;;;;;13.88;9.65;;;;;;;;;;5055734;28;20025;-60
2022/08/18 08:32:04;;;;;;;12.73;9.48;;;;;;;;;;5055108;28;20374;-60
2022/08/18 08:34:35;;;;;;;9.90;8.90;;;;;;;;;;5055343;28;20028;-60
2022/08/18 08:37:02;;;;;;;11.60;9.38;;;;;;;;;;5055038;28;20460;-60
2022/08/18 08:39:34;;;;;;;10.48;9.07;;;;;;;;;;5055002;28;20048;-61
2022/08/18 08:42:30;;;;;;;9.88;8.93;;;;;;;;;;5054950;28;20047;-60
2022/08/18 08:44:59;;;;;;;13.52;9.15;;;;;;;;;;5035562;28;20088;-60
2022/08/18 08:47:31;;;;;;;11.10;7.38;;;;;;;;;;5054872;28;20524;-60
2022/08/18 08:49:59;;;;;;;10.40;8.35;;;;;;;;;;5054844;28;20047;-60
2022/08/18 08:52:35;;;;;;;9.85;8.90;;;;;;;;;;5054524;28;20037;-60
2022/08/18 08:55:06;;;;;;;11.00;8.82;;;;;;;;;;5070218;28;20029;-60
2022/08/18 08:57:37;;;;;;;10.75;9.65;;;;;;;;;;5054982;28;20033;-60
2022/08/18 09:00:08;;;;;;;9.48;8.52;;;;;;;;;;5054921;28;20470;-60
2022/08/18 09:02:51;;;;;;;9.60;8.52;;;;;;;;;;5054332;28;20025;-60
2022/08/18 09:05:40;;;;;;;13.52;9.40;;;;;;;;;;5054574;28;20066;-60
2022/08/18 09:08:11;;;;;;;12.27;9.38;;;;;;;;;;5051421;28;20109;-60
2022/08/18 09:10:38;;;;;;;10.82;8.85;;;;;;;;;;5054731;28;20041;-60
2022/08/18 09:13:04;;;;;;;10.45;9.25;;;;;;;;;;5054053;28;20025;-60
2022/08/18 09:15:39;;;;;;;12.65;9.70;;;;;;;;;;5054642;28;20024;-60
2022/08/18 09:18:14;;;;;;;9.77;8.88;;;;;;;;;;5054339;28;20360;-60
2022/08/18 09:20:54;;;;;;;10.05;9.13;;;;;;;;;;5069401;28;20094;-60
2022/08/18 09:23:20;;;;;;;;;;;;;;;;;;5054553;28;20033;-60
2022/08/18 09:25:45;;;;;;;11.27;9.47;;;;;;;;;;5054178;28;20039;-60
2022/08/18 09:28:11;;;;;;;13.07;9.68;;;;;;;;;;5053880;28;20263;-60
2022/08/18 09:30:40;;;;;;;10.80;9.52;;;;;;;;;;5054113;28;20021;-60
2022/08/18 09:33:17;;;;;;;10.30;9.30;;;;;;;;;;5054007;28;20032;-60
2022/08/18 09:35:54;;;;;;;9.85;8.90;;;;;;;;;;5053806;28;20079;-60
2022/08/18 09:44:08;;;;;;;9.82;8.82;;;;;;;;;;5053676;28;20036;-60
2022/08/18 09:46:46;;;;;;;10.35;8.32;;;;;;;;;;5054229;28;20044;-60
2022/08/18 09:49:26;;;;;;;13.75;9.27;;;;;;;;;;5054166;28;20029;-60
2022/08/18 09:51:58;;;;;;;9.80;8.70;;;;;;;;;;5053750;28;20120;-60
2022/08/18 09:54:26;;;;;;;10.95;9.35;;;;;;;;;;5054120;28;20394;-60
2022/08/18 09:57:16;;;;;;;9.52;8.65;;;;;;;;;;5053529;28;20021;-60
2022/08/18 09:59:44;;;;;;;11.20;9.23;;;;;;;;;;5047315;28;20484;-60
2022/08/18 10:02:32;;;;;;;10.45;9.32;;;;;;;;;;5053732;28;20115;-60
2022/08/18 10:05:17;;;;;;;10.15;9.00;;;;;;;;;;5053315;28;20040;-60
2022/08/18 10:07:46;;;;;;;9.35;8.48;;;;;;;;;;5053698;28;20029;-60
2022/08/18 10:10:22;;;;;;;9.82;8.32;;;;;;;;;;5053672;28;20082;-61
2022/08/18 10:12:53;;;;;;;10.35;8.25;;;;;;;;;;5053295;28;20045;-60
2022/08/18 10:15:35;;;;;;;9.45;8.48;;;;;;;;;;5053621;28;20087;-60
2022/08/18 10:18:13;;;;;;;8.20;6.90;;;;;;;;;;5053625;28;20025;-60
2022/08/18 10:20:38;;;;;;;9.20;8.23;;;;;;;;;;5053589;28;20071;-60
2022/08/18 10:23:06;;;;;;;10.45;8.35;;;;;;;;;;5053798;28;20459;-60
2022/08/18 10:25:36;;;;;;;10.57;8.75;;;;;;;;;;5053560;28;20033;-61
2022/08/18 10:28:04;;;;;;;9.90;8.15;;;;;;;;;;5053554;28;20025;-60
2022/08/18 10:30:30;;;;;;;9.88;8.48;;;;;;;;;;5053256;28;20100;-60
2022/08/18 10:32:56;;;;;;;12.68;7.97;;;;;;;;;;5053124;28;20140;-60
2022/08/18 10:35:34;;;;;;;8.82;7.68;;;;;;;;;;5055655;28;20379;-60
2022/08/18 10:38:01;;;;;;;8.20;7.32;;;;;;;;;;5057313;28;20446;-60
2022/08/18 10:40:26;;;;;;;9.00;8.05;;;;;;;;;;5057055;28;20021;-60
2022/08/18 10:42:56;;;;;;;9.52;8.05;;;;;;;;;;5057018;28;20077;-60
2022/08/18 10:45:27;;;;;;;8.63;7.80;;;;;;;;;;5056971;28;20475;-60
2022/08/18 10:48:18;;;;;;;8.38;7.57;;;;;;;;;;5057752;28;20037;-60
2022/08/18 10:51:03;;;;;;;9.35;7.93;;;;;;;;;;5057120;28;20033;-60
2022/08/18 10:53:48;;;;;;;9.27;8.20;;;;;;;;;;5052687;28;20044;-60
2022/08/18 10:56:27;;;;;;;8.23;7.40;;;;;;;;;;5055486;28;20371;-60
2022/08/18 10:59:10;;;;;;;9.75;7.72;;;;;;;;;;5057248;28;20024;-60
2022/08/18 11:01:48;;;;;;;10.02;8.60;;;;;;;;;;5056875;28;20040;-60
2022/08/18 11:04:19;;;;;;;8.10;7.38;;;;;;;;;;5056895;28;20083;-60
2022/08/18 11:06:47;;;;;;;8.27;7.20;;;;;;;;;;5056833;28;20039;-60
2022/08/18 11:09:20;;;;;;;8.25;7.32;;;;;;;;;;5056481;28;20048;-60
2022/08/18 11:11:49;;;;;;;9.13;8.23;;;;;;;;;;5056636;28;20029;-60
2022/08/18 11:14:41;;;;;;;9.23;8.15;;;;;;;;;;5056413;28;20040;-60
2022/08/18 11:17:21;;;;;;;8.63;7.78;;;;;;;;;;5056327;28;20372;-61
2022/08/18 11:19:46;;;;;;;8.48;7.68;;;;;;;;;;5056586;28;20422;-60
2022/08/18 11:22:25;;;;;;;9.18;7.88;;;;;;;;;;5056234;28;20028;-60
2022/08/18 11:24:51;;;;;;;7.88;7.10;;;;;;;;;;5054925;28;20033;-60
2022/08/18 11:27:21;;;;;;;9.48;7.57;;;;;;;;;;5056352;28;20151;-61
2022/08/18 11:29:47;;;;;;;10.20;7.95;;;;;;;;;;5056390;28;20082;-60
2022/08/18 11:32:24;;;;;;;11.32;7.75;;;;;;;;;;5056521;28;20096;-60
2022/08/18 11:34:50;;;;;;;11.68;7.65;;;;;;;;;;5056265;28;20159;-60
2022/08/18 11:37:25;;;;;;;9.40;7.68;;;;;;;;;;5055946;28;20073;-60
2022/08/18 11:39:52;;;;;;;12.93;7.70;;;;;;;;;;5056205;28;20464;-60
2022/08/18 11:42:18;;;;;;;9.30;7.72;;;;;;;;;;5055883;28;20387;-60
2022/08/18 11:44:44;;;;;;;9.80;7.93;;;;;;;;;;5071095;28;20028;-60
2022/08/18 11:47:14;;;;;;;8.80;8.02;;;;;;;;;;5055608;28;20417;-60
2022/08/18 11:49:57;;;;;;;11.40;7.82;;;;;;;;;;5056023;28;20033;-60
2022/08/18 11:52:27;;;;;;;7.95;7.32;;;;;;;;;;5055550;28;20488;-60
2022/08/18 11:54:58;;;;;;;8.57;7.78;;;;;;;;;;5055927;28;20412;-60
2022/08/18 11:57:40;;;;;;;7.72;7.03;;;;;;;;;;5071343;28;20040;-60
2022/08/18 12:00:25;;;;;;;8.25;7.38;;;;;;;;;;5055809;28;20037;-60
2022/08/18 12:03:00;;;;;;;7.75;6.95;;;;;;;;;;5055452;28;20025;-60
2022/08/18 12:05:26;;;;;;;9.05;7.40;;;;;;;;;;5055467;28;20483;-60
2022/08/18 12:07:51;;;;;;;8.43;7.40;;;;;;;;;;5055383;28;20079;-60
2022/08/18 12:10:26;;;;;;;8.55;7.85;;;;;;;;;;5055633;28;20033;-60
2022/08/18 12:12:52;;;;;;;8.40;7.40;;;;;;;;;;5055193;28;20102;-60
2022/08/18 12:15:17;;;;;;;7.65;6.63;;;;;;;;;;5055260;28;20425;-60
2022/08/18 12:17:44;;;;;;;9.35;7.45;;;;;;;;;;5055508;28;20036;-60
2022/08/18 12:20:10;;;;;;;8.48;7.63;;;;;;;;;;5055402;28;20031;-60
2022/08/18 12:22:37;;;;;;;10.63;7.88;;;;;;;;;;5055077;28;20041;-60
2022/08/18 12:25:07;;;;;;;8.40;7.35;;;;;;;;;;5055295;28;20021;-60
2022/08/18 12:27:32;;;;;;;8.70;7.15;;;;;;;;;;5055294;28;20059;-60
2022/08/18 12:29:59;;;;;;;11.07;7.82;;;;;;;;;;5055229;28;20056;-60
2022/08/18 12:32:26;;;;;;;8.05;6.82;;;;;;;;;;5055158;28;20029;-61
2022/08/18 12:34:51;;;;;;;8.23;7.38;;;;;;;;;;5055137;28;20107;-60
2022/08/18 12:37:25;;;;;;;8.52;7.78;;;;;;;;;;5054938;28;20060;-61
2022/08/18 12:39:51;;;;;;;8.27;7.10;;;;;;;;;;5055084;28;20052;-61
2022/08/18 12:42:17;;;;;;;11.45;7.45;;;;;;;;;;5070192;28;20025;-60
2022/08/18 12:44:43;;;;;;;9.57;7.32;;;;;;;;;;5054694;28;20104;-60
2022/08/18 12:47:13;;;;;;;8.02;7.10;;;;;;;;;;5054624;28;20025;-60
2022/08/18 12:49:38;;;;;;;8.85;6.78;;;;;;;;;;5055164;28;20101;-61
2022/08/18 12:52:04;;;;;;;7.72;7.05;;;;;;;;;;5054344;28;20559;-60
2022/08/18 12:54:31;;;;;;;7.68;6.80;;;;;;;;;;5054768;28;20034;-60
2022/08/18 12:56:57;;;;;;;6.55;6.00;;;;;;;;;;5053772;28;20025;-60
2022/08/18 12:59:23;;;;;;;7.20;6.50;;;;;;;;;;5054681;28;20090;-61
2022/08/18 13:01:49;;;;;;;9.30;7.10;;;;;;;;;;5054616;28;20045;-60
2022/08/18 13:04:15;;;;;;;7.20;6.53;;;;;;;;;;5054909;28;20056;-60
2022/08/18 13:06:48;;;;;;;9.30;5.97;;;;;;;;;;5053032;28;20052;-60
2022/08/18 13:09:14;;;;;;;7.32;5.32;;;;;;;;;;5054496;28;20099;-60
2022/08/18 13:11:40;;;;;;;5.75;5.25;;;;;;;;;;5054159;28;20041;-60
2022/08/18 13:14:06;;;;;;;6.78;5.93;;;;;;;;;;5054058;28;20507;-61
2022/08/18 13:16:33;;;;;;;5.65;5.10;;;;;;;;;;5054112;28;20021;-60
2022/08/18 13:18:58;;;;;;;4.50;4.05;;;;;;;;;;5054074;28;20078;-60
2022/08/18 13:21:24;;;;;;;7.30;6.28;;;;;;;;;;5053898;28;20025;-60
2022/08/18 13:23:49;;;;;;;5.38;4.93;;;;;;;;;;5054188;28;20060;-61
2022/08/18 13:26:22;;;;;;;7.45;6.85;;;;;;;;;;5053858;28;20387;-60
2022/08/18 13:28:48;;;;;;;7.47;6.20;;;;;;;;;;5053835;28;20054;-60
2022/08/18 13:31:14;;;;;;;7.75;6.95;;;;;;;;;;5053668;28;20095;-61
2022/08/18 13:33:41;;;;;;;6.75;6.25;;;;;;;;;;5054500;28;20037;-60
2022/08/18 13:36:06;;;;;;;11.45;7.10;;;;;;;;;;5054052;28;20048;-60
2022/08/18 13:38:32;;;;;;;8.13;7.30;;;;;;;;;;5053770;28;20073;-61
2022/08/18 13:40:59;;;;;;;7.65;6.95;;;;;;;;;;5054307;28;20024;-60
2022/08/18 13:43:32;;;;;;;7.45;6.70;;;;;;;;;;5052463;28;20029;-60
2022/08/18 13:45:58;;;;;;;9.82;6.88;;;;;;;;;;5053582;28;20029;-61
2022/08/18 13:48:24;;;;;;;9.57;6.53;;;;;;;;;;5053919;28;20083;-60
2022/08/18 13:50:53;;;;;;;7.30;5.47;;;;;;;;;;5053928;28;20025;-60
2022/08/18 13:53:20;;;;;;;7.60;5.80;;;;;;;;;;5053315;28;20083;-60
2022/08/18 13:55:46;;;;;;;7.00;6.38;;;;;;;;;;5054130;28;20264;-60
2022/08/18 13:58:12;;;;;;;6.15;5.65;;;;;;;;;;5053829;28;20032;-60
2022/08/18 14:00:38;;;;;;;7.97;5.18;;;;;;;;;;5053765;28;20027;-61
2022/08/18 14:03:05;;;;;;;7.15;5.60;;;;;;;;;;5053503;28;20025;-60
2022/08/18 14:05:31;;;;;;;7.13;6.45;;;;;;;;;;5053735;28;20021;-60
2022/08/18 14:07:56;;;;;;;7.18;5.78;;;;;;;;;;5053855;28;20047;-60
2022/08/18 14:10:23;;;;;;;6.78;5.82;;;;;;;;;;5057581;28;20386;-60
2022/08/18 14:12:50;;;;;;;7.30;6.60;;;;;;;;;;5057479;28;20035;-60
2022/08/18 14:15:16;;;;;;;7.20;6.60;;;;;;;;;;5057792;28;20104;-60
2022/08/18 14:17:41;;;;;;;6.70;6.10;;;;;;;;;;5057527;28;20471;-60
2022/08/18 14:28:22;;;;;;;9.10;6.53;;;;;;;;;;5057280;28;20444;-60
2022/08/18 14:30:48;;;;;;;7.13;5.90;;;;;;;;;;5057212;28;20103;-60
2022/08/18 14:33:16;;;;;;;6.30;5.70;;;;;;;;;;5057142;28;20029;-60
2022/08/18 14:35:42;;;;;;;6.38;5.60;;;;;;;;;;5057311;28;20404;-60
2022/08/18 14:38:07;;;;;;;7.03;6.28;;;;;;;;;;5057359;28;20068;-60
2022/08/18 14:40:33;;;;;;;6.90;6.03;;;;;;;;;;5057045;28;20428;-60
2022/08/18 14:43:00;;;;;;;7.43;6.60;;;;;;;;;;5057611;28;20025;-60
2022/08/18 14:45:27;;;;;;;7.10;6.40;;;;;;;;;;5056910;28;20386;-61
2022/08/18 14:47:53;;;;;;;6.57;6.13;;;;;;;;;;5057186;28;20064;-60
2022/08/18 14:50:19;;;;;;;9.65;7.05;;;;;;;;;;5057126;28;20087;-61
2022/08/18 14:52:47;;;;;;;8.52;6.53;;;;;;;;;;5056656;28;20037;-60
2022/08/18 14:55:12;;;;;;;7.10;6.50;;;;;;;;;;5056834;28;20108;-60
2022/08/18 14:57:38;;;;;;;7.53;6.72;;;;;;;;;;5056986;28;20067;-60
2022/08/18 15:00:04;;;;;;;7.60;6.90;;;;;;;;;;5056987;28;20498;-60
2022/08/18 15:02:30;;;;;;;6.70;5.50;;;;;;;;;;5056606;28;20033;-61
2022/08/18 15:04:55;;;;;;;8.90;6.38;;;;;;;;;;5056818;28;20398;-60
2022/08/18 15:07:21;;;;;;;7.13;6.43;;;;;;;;;;5056516;28;20368;-61
2022/08/18 15:09:46;;;;;;;6.63;5.80;;;;;;;;;;5056806;28;20451;-60